NKS1983 MUHA-KFLL
Flight info
| Callsign | NKS1983 |
|---|---|
| Flight time | 0h 44m |
| Altitude | 31000 |
| Route | EPMAR4A MAXIM BHHIA3 |
| Aircraft | A320/M-SDE3FGHIRWY/LB1 |
Departure
| Time | 2026-05-03 21:02 |
|---|---|
| Airport | José Martí International Airport (MUHA) |
Arrival
| Time | 2026-05-03 21:46 |
|---|---|
| Airport | Fort Lauderdale Hollywood International Airport (KFLL) |
| Time | Latitude | Longitude | Altitude | Speed | Heading |
|---|---|---|---|---|---|
| 2026-05-03 20:31 | 22.99664 | -82.40634 | 205 ft | 0 kts | 266° |
| 2026-05-03 20:51 | 22.99664 | -82.40627 | 211 ft | 4 kts | 266° |
| 2026-05-03 20:52 | 22.99666 | -82.40597 | 209 ft | 4 kts | 266° |
| 2026-05-03 20:52 | 22.99667 | -82.40569 | 213 ft | 4 kts | 266° |
| 2026-05-03 20:52 | 22.99670 | -82.40544 | 210 ft | 4 kts | 234° |
| 2026-05-03 20:52 | 22.99688 | -82.40536 | 212 ft | 4 kts | 163° |
| 2026-05-03 20:53 | 22.99712 | -82.40547 | 205 ft | 3 kts | 147° |
| 2026-05-03 20:53 | 22.99716 | -82.40550 | 203 ft | 0 kts | 147° |
| 2026-05-03 20:55 | 22.99715 | -82.40549 | 200 ft | 2 kts | 147° |
| 2026-05-03 20:55 | 22.99671 | -82.40524 | 200 ft | 12 kts | 157° |
| 2026-05-03 20:55 | 22.99595 | -82.40527 | 209 ft | 11 kts | 213° |
| 2026-05-03 20:55 | 22.99537 | -82.40597 | 205 ft | 14 kts | 233° |
| 2026-05-03 20:56 | 22.99476 | -82.40688 | 203 ft | 16 kts | 235° |
| 2026-05-03 20:56 | 22.99409 | -82.40791 | 208 ft | 17 kts | 234° |
| 2026-05-03 20:56 | 22.99308 | -82.40818 | 199 ft | 18 kts | 150° |
| 2026-05-03 20:56 | 22.99201 | -82.40802 | 203 ft | 17 kts | 224° |
| 2026-05-03 20:57 | 22.99123 | -82.40914 | 207 ft | 20 kts | 234° |
| 2026-05-03 20:57 | 22.99041 | -82.41040 | 201 ft | 21 kts | 233° |
| 2026-05-03 20:57 | 22.98953 | -82.41174 | 208 ft | 23 kts | 234° |
| 2026-05-03 20:57 | 22.98858 | -82.41317 | 207 ft | 24 kts | 234° |
| 2026-05-03 20:58 | 22.98755 | -82.41468 | 208 ft | 26 kts | 233° |
| 2026-05-03 20:58 | 22.98647 | -82.41630 | 206 ft | 27 kts | 235° |
| 2026-05-03 20:58 | 22.98535 | -82.41804 | 198 ft | 29 kts | 235° |
| 2026-05-03 20:58 | 22.98415 | -82.41983 | 205 ft | 30 kts | 234° |
| 2026-05-03 20:59 | 22.98308 | -82.42141 | 212 ft | 22 kts | 228° |
| 2026-05-03 20:59 | 22.98221 | -82.42153 | 199 ft | 6 kts | 150° |
| 2026-05-03 20:59 | 22.98217 | -82.42150 | 199 ft | 0 kts | 148° |
| 2026-05-03 20:59 | 22.98215 | -82.42148 | 199 ft | 0 kts | 148° |
| 2026-05-03 21:00 | 22.98214 | -82.42148 | 199 ft | 0 kts | 147° |
| 2026-05-03 21:00 | 22.98209 | -82.42144 | 199 ft | 4 kts | 146° |
| 2026-05-03 21:00 | 22.98157 | -82.42094 | 210 ft | 16 kts | 118° |
| 2026-05-03 21:01 | 22.98203 | -82.41980 | 201 ft | 16 kts | 53° |
| 2026-05-03 21:01 | 22.98345 | -82.41770 | 207 ft | 67 kts | 52° |
| 2026-05-03 21:01 | 22.98742 | -82.41176 | 209 ft | 127 kts | 54° |
| 2026-05-03 21:01 | 22.99350 | -82.40259 | 218 ft | 170 kts | 54° |
| 2026-05-03 21:02 | 23.00083 | -82.39170 | 649 ft | 183 kts | 53° |
| 2026-05-03 21:02 | 23.00879 | -82.38051 | 1250 ft | 190 kts | 51° |
| 2026-05-03 21:02 | 23.01667 | -82.36904 | 1972 ft | 189 kts | 53° |
| 2026-05-03 21:02 | 23.02434 | -82.35737 | 2474 ft | 198 kts | 54° |
| 2026-05-03 21:03 | 23.03281 | -82.34444 | 2713 ft | 222 kts | 54° |
| 2026-05-03 21:03 | 23.04227 | -82.33004 | 3008 ft | 246 kts | 55° |
| 2026-05-03 21:03 | 23.05263 | -82.31409 | 3422 ft | 270 kts | 54° |
| 2026-05-03 21:03 | 23.06375 | -82.29699 | 4101 ft | 282 kts | 54° |
| 2026-05-03 21:04 | 23.07519 | -82.27946 | 4962 ft | 287 kts | 55° |
| 2026-05-03 21:04 | 23.08686 | -82.26168 | 5806 ft | 291 kts | 55° |
| 2026-05-03 21:04 | 23.09872 | -82.24366 | 6632 ft | 296 kts | 55° |
| 2026-05-03 21:04 | 23.11080 | -82.22539 | 7428 ft | 299 kts | 54° |
| 2026-05-03 21:05 | 23.12356 | -82.20742 | 8230 ft | 302 kts | 45° |
| 2026-05-03 21:05 | 23.14045 | -82.19385 | 9038 ft | 303 kts | 24° |
| 2026-05-03 21:05 | 23.16050 | -82.18712 | 9824 ft | 303 kts | 4° |
| 2026-05-03 21:05 | 23.18129 | -82.18772 | 10406 ft | 309 kts | 346° |
| 2026-05-03 21:06 | 23.20236 | -82.19504 | 10595 ft | 328 kts | 337° |
| 2026-05-03 21:06 | 23.22419 | -82.20398 | 11023 ft | 340 kts | 337° |
| 2026-05-03 21:06 | 23.24644 | -82.21313 | 11649 ft | 344 kts | 336° |
| 2026-05-03 21:06 | 23.26898 | -82.22235 | 12310 ft | 347 kts | 337° |
| 2026-05-03 21:07 | 23.29173 | -82.23157 | 12954 ft | 351 kts | 337° |
| 2026-05-03 21:07 | 23.31476 | -82.24085 | 13587 ft | 354 kts | 337° |
| 2026-05-03 21:07 | 23.33801 | -82.25021 | 14159 ft | 358 kts | 337° |
| 2026-05-03 21:07 | 23.36145 | -82.25967 | 14714 ft | 361 kts | 337° |
| 2026-05-03 21:08 | 23.38509 | -82.26922 | 15264 ft | 363 kts | 336° |
| 2026-05-03 21:08 | 23.40888 | -82.27884 | 15821 ft | 366 kts | 336° |
| 2026-05-03 21:08 | 23.43286 | -82.28854 | 16370 ft | 369 kts | 336° |
| 2026-05-03 21:08 | 23.45702 | -82.29831 | 16926 ft | 372 kts | 336° |
| 2026-05-03 21:09 | 23.48099 | -82.30799 | 17463 ft | 374 kts | 336° |
| 2026-05-03 21:09 | 23.50553 | -82.31788 | 18005 ft | 377 kts | 336° |
| 2026-05-03 21:09 | 23.53020 | -82.32784 | 18511 ft | 380 kts | 336° |
| 2026-05-03 21:09 | 23.55509 | -82.33791 | 18971 ft | 383 kts | 336° |
| 2026-05-03 21:10 | 23.58013 | -82.34808 | 19441 ft | 386 kts | 335° |
| 2026-05-03 21:10 | 23.60538 | -82.35833 | 19892 ft | 389 kts | 335° |
| 2026-05-03 21:10 | 23.63087 | -82.36867 | 20363 ft | 392 kts | 335° |
| 2026-05-03 21:10 | 23.65650 | -82.37906 | 20833 ft | 395 kts | 335° |
| 2026-05-03 21:11 | 23.68235 | -82.38955 | 21272 ft | 397 kts | 335° |
| 2026-05-03 21:11 | 23.69956 | -82.39653 | 21561 ft | 399 kts | 335° |
| 2026-05-03 21:11 | 23.72565 | -82.40716 | 22014 ft | 402 kts | 334° |
| 2026-05-03 21:11 | 23.75190 | -82.41785 | 22479 ft | 404 kts | 334° |
| 2026-05-03 21:12 | 23.77833 | -82.42858 | 22932 ft | 406 kts | 334° |
| 2026-05-03 21:12 | 23.80488 | -82.43935 | 23368 ft | 409 kts | 334° |
| 2026-05-03 21:12 | 23.83163 | -82.45020 | 23754 ft | 411 kts | 334° |
| 2026-05-03 21:12 | 23.85854 | -82.46112 | 24114 ft | 413 kts | 334° |
| 2026-05-03 21:13 | 23.88556 | -82.47211 | 24495 ft | 415 kts | 333° |
| 2026-05-03 21:13 | 23.91269 | -82.48319 | 24870 ft | 417 kts | 333° |
| 2026-05-03 21:13 | 23.94037 | -82.49334 | 25210 ft | 426 kts | 340° |
| 2026-05-03 21:13 | 23.97024 | -82.49681 | 25552 ft | 440 kts | 355° |
| 2026-05-03 21:14 | 24.00099 | -82.49165 | 25891 ft | 455 kts | 11° |
| 2026-05-03 21:14 | 24.03028 | -82.47749 | 26227 ft | 468 kts | 28° |
| 2026-05-03 21:14 | 24.05576 | -82.45482 | 26546 ft | 479 kts | 43° |
| 2026-05-03 21:14 | 24.07883 | -82.42832 | 26858 ft | 482 kts | 43° |
| 2026-05-03 21:15 | 24.10184 | -82.40161 | 26992 ft | 481 kts | 44° |
| 2026-05-03 21:15 | 24.12441 | -82.37527 | 27016 ft | 469 kts | 44° |
| 2026-05-03 21:15 | 24.14661 | -82.34938 | 27016 ft | 464 kts | 44° |
| 2026-05-03 21:15 | 24.16875 | -82.32366 | 27016 ft | 463 kts | 43° |
| 2026-05-03 21:16 | 24.19083 | -82.29810 | 27016 ft | 462 kts | 43° |
| 2026-05-03 21:16 | 24.21324 | -82.27224 | 27016 ft | 473 kts | 43° |
| 2026-05-03 21:16 | 24.23579 | -82.24626 | 27013 ft | 474 kts | 43° |
| 2026-05-03 21:16 | 24.25861 | -82.21985 | 27018 ft | 483 kts | 43° |
| 2026-05-03 21:17 | 24.28201 | -82.19272 | 27016 ft | 494 kts | 43° |
| 2026-05-03 21:17 | 24.30582 | -82.16506 | 27017 ft | 502 kts | 43° |
| 2026-05-03 21:17 | 24.32984 | -82.13708 | 27012 ft | 504 kts | 44° |
| 2026-05-03 21:17 | 24.35385 | -82.10911 | 27015 ft | 505 kts | 44° |
| 2026-05-03 21:18 | 24.37795 | -82.08100 | 27016 ft | 505 kts | 44° |
| 2026-05-03 21:18 | 24.40201 | -82.05294 | 27017 ft | 505 kts | 44° |
| 2026-05-03 21:18 | 24.42610 | -82.02480 | 27016 ft | 505 kts | 44° |
| 2026-05-03 21:18 | 24.45017 | -81.99669 | 27015 ft | 506 kts | 44° |
| 2026-05-03 21:19 | 24.47434 | -81.96865 | 27017 ft | 505 kts | 41° |
| 2026-05-03 21:19 | 24.50088 | -81.94374 | 27019 ft | 501 kts | 33° |
| 2026-05-03 21:19 | 24.52845 | -81.92033 | 27014 ft | 501 kts | 33° |
| 2026-05-03 21:19 | 24.55572 | -81.89723 | 27018 ft | 501 kts | 33° |
| 2026-05-03 21:20 | 24.58330 | -81.87388 | 27016 ft | 501 kts | 33° |
| 2026-05-03 21:20 | 24.61092 | -81.85046 | 27021 ft | 501 kts | 33° |
| 2026-05-03 21:20 | 24.63848 | -81.82705 | 27020 ft | 501 kts | 33° |
| 2026-05-03 21:20 | 24.66601 | -81.80365 | 27024 ft | 501 kts | 33° |
| 2026-05-03 21:21 | 24.69356 | -81.78022 | 27025 ft | 501 kts | 33° |
| 2026-05-03 21:21 | 24.72113 | -81.75673 | 26872 ft | 501 kts | 34° |
| 2026-05-03 21:21 | 24.74851 | -81.73320 | 26614 ft | 498 kts | 34° |
| 2026-05-03 21:21 | 24.77580 | -81.70963 | 26378 ft | 496 kts | 34° |
| 2026-05-03 21:22 | 24.80296 | -81.68613 | 26160 ft | 496 kts | 34° |
| 2026-05-03 21:22 | 24.83005 | -81.66270 | 25925 ft | 496 kts | 34° |
| 2026-05-03 21:22 | 24.85713 | -81.63928 | 25680 ft | 493 kts | 34° |
| 2026-05-03 21:22 | 24.88401 | -81.61599 | 25453 ft | 490 kts | 34° |
| 2026-05-03 21:23 | 24.91073 | -81.59282 | 25214 ft | 488 kts | 34° |
| 2026-05-03 21:23 | 24.93735 | -81.56975 | 24989 ft | 486 kts | 34° |
| 2026-05-03 21:23 | 24.96389 | -81.54676 | 24761 ft | 484 kts | 34° |
| 2026-05-03 21:23 | 24.99031 | -81.52386 | 24540 ft | 482 kts | 34° |
| 2026-05-03 21:24 | 25.01669 | -81.50099 | 24291 ft | 480 kts | 34° |
| 2026-05-03 21:24 | 25.04287 | -81.47830 | 23788 ft | 478 kts | 34° |
| 2026-05-03 21:24 | 25.06896 | -81.45567 | 23197 ft | 475 kts | 35° |
| 2026-05-03 21:24 | 25.09482 | -81.43319 | 22692 ft | 470 kts | 35° |
| 2026-05-03 21:25 | 25.12040 | -81.41092 | 22128 ft | 466 kts | 35° |
| 2026-05-03 21:25 | 25.14574 | -81.38883 | 21600 ft | 462 kts | 35° |
| 2026-05-03 21:25 | 25.17081 | -81.36700 | 21062 ft | 457 kts | 35° |
| 2026-05-03 21:25 | 25.19568 | -81.34540 | 20521 ft | 453 kts | 35° |
| 2026-05-03 21:26 | 25.22035 | -81.32398 | 19981 ft | 449 kts | 35° |
| 2026-05-03 21:26 | 25.24469 | -81.30256 | 19432 ft | 446 kts | 36° |
| 2026-05-03 21:26 | 25.26860 | -81.28088 | 19049 ft | 440 kts | 37° |
| 2026-05-03 21:26 | 25.29161 | -81.25960 | 18649 ft | 433 kts | 37° |
| 2026-05-03 21:27 | 25.31451 | -81.23832 | 18177 ft | 429 kts | 37° |
| 2026-05-03 21:27 | 25.33726 | -81.21722 | 17643 ft | 424 kts | 37° |
| 2026-05-03 21:27 | 25.35978 | -81.19643 | 17093 ft | 420 kts | 37° |
| 2026-05-03 21:27 | 25.38216 | -81.17589 | 16586 ft | 416 kts | 37° |
| 2026-05-03 21:28 | 25.40439 | -81.15556 | 16029 ft | 413 kts | 36° |
| 2026-05-03 21:28 | 25.42640 | -81.13548 | 15492 ft | 409 kts | 36° |
| 2026-05-03 21:28 | 25.44823 | -81.11551 | 14973 ft | 405 kts | 37° |
| 2026-05-03 21:28 | 25.46983 | -81.09571 | 14463 ft | 401 kts | 37° |
| 2026-05-03 21:29 | 25.49157 | -81.07678 | 14078 ft | 393 kts | 29° |
| 2026-05-03 21:29 | 25.51611 | -81.06406 | 13833 ft | 388 kts | 14° |
| 2026-05-03 21:29 | 25.54172 | -81.05472 | 13358 ft | 385 kts | 14° |
| 2026-05-03 21:29 | 25.56717 | -81.04561 | 12881 ft | 382 kts | 14° |
| 2026-05-03 21:30 | 25.59244 | -81.03666 | 12406 ft | 380 kts | 14° |
| 2026-05-03 21:30 | 25.61751 | -81.02779 | 11944 ft | 376 kts | 14° |
| 2026-05-03 21:30 | 25.64238 | -81.01896 | 11546 ft | 370 kts | 14° |
| 2026-05-03 21:30 | 25.66637 | -81.01038 | 11421 ft | 355 kts | 14° |
| 2026-05-03 21:31 | 25.68944 | -81.00212 | 11314 ft | 342 kts | 14° |
| 2026-05-03 21:31 | 25.71180 | -80.99413 | 11194 ft | 331 kts | 13° |
| 2026-05-03 21:31 | 25.73338 | -80.98641 | 11076 ft | 321 kts | 13° |
| 2026-05-03 21:31 | 25.75433 | -80.97892 | 10876 ft | 314 kts | 13° |
| 2026-05-03 21:32 | 25.77505 | -80.97154 | 10584 ft | 311 kts | 13° |
| 2026-05-03 21:32 | 25.79559 | -80.96424 | 10276 ft | 309 kts | 13° |
| 2026-05-03 21:32 | 25.81576 | -80.95707 | 9977 ft | 308 kts | 13° |
| 2026-05-03 21:32 | 25.83610 | -80.94981 | 9661 ft | 306 kts | 14° |
| 2026-05-03 21:33 | 25.85635 | -80.94257 | 9339 ft | 304 kts | 14° |
| 2026-05-03 21:33 | 25.87635 | -80.93497 | 9001 ft | 305 kts | 21° |
| 2026-05-03 21:33 | 25.89507 | -80.92389 | 8674 ft | 305 kts | 26° |
| 2026-05-03 21:33 | 25.91360 | -80.91251 | 8342 ft | 303 kts | 26° |
| 2026-05-03 21:34 | 25.93204 | -80.90119 | 8033 ft | 302 kts | 26° |
| 2026-05-03 21:34 | 25.95034 | -80.88994 | 7721 ft | 300 kts | 26° |
| 2026-05-03 21:34 | 25.96853 | -80.87875 | 7410 ft | 298 kts | 26° |
| 2026-05-03 21:34 | 25.98660 | -80.86757 | 7127 ft | 296 kts | 28° |
| 2026-05-03 21:35 | 26.00239 | -80.85304 | 6985 ft | 295 kts | 48° |
| 2026-05-03 21:35 | 26.01319 | -80.83423 | 6983 ft | 286 kts | 66° |
| 2026-05-03 21:35 | 26.01862 | -80.81311 | 6867 ft | 280 kts | 81° |
| 2026-05-03 21:35 | 26.02195 | -80.79246 | 6736 ft | 262 kts | 81° |
| 2026-05-03 21:36 | 26.02501 | -80.77317 | 6511 ft | 251 kts | 81° |
| 2026-05-03 21:36 | 26.02804 | -80.75406 | 6446 ft | 252 kts | 81° |
| 2026-05-03 21:36 | 26.03110 | -80.73481 | 6361 ft | 253 kts | 80° |
| 2026-05-03 21:36 | 26.03414 | -80.71563 | 6235 ft | 251 kts | 81° |
| 2026-05-03 21:37 | 26.03716 | -80.69651 | 6138 ft | 251 kts | 80° |
| 2026-05-03 21:37 | 26.04019 | -80.67731 | 6022 ft | 254 kts | 82° |
| 2026-05-03 21:37 | 26.04323 | -80.65801 | 5886 ft | 251 kts | 81° |
| 2026-05-03 21:37 | 26.04619 | -80.63931 | 5744 ft | 238 kts | 81° |
| 2026-05-03 21:38 | 26.04896 | -80.62187 | 5647 ft | 221 kts | 81° |
| 2026-05-03 21:38 | 26.05156 | -80.60548 | 5482 ft | 212 kts | 81° |
| 2026-05-03 21:38 | 26.05412 | -80.58929 | 5447 ft | 212 kts | 80° |
| 2026-05-03 21:38 | 26.05664 | -80.57329 | 5394 ft | 208 kts | 81° |
| 2026-05-03 21:39 | 26.05915 | -80.55739 | 5318 ft | 210 kts | 78° |
| 2026-05-03 21:39 | 26.06170 | -80.54125 | 5242 ft | 217 kts | 84° |
| 2026-05-03 21:39 | 26.06432 | -80.52445 | 5077 ft | 220 kts | 81° |
| 2026-05-03 21:39 | 26.06685 | -80.50786 | 4986 ft | 216 kts | 84° |
| 2026-05-03 21:40 | 26.06758 | -80.49134 | 4773 ft | 214 kts | 91° |
| 2026-05-03 21:40 | 26.06741 | -80.47459 | 4341 ft | 217 kts | 89° |
| 2026-05-03 21:40 | 26.06729 | -80.45777 | 4211 ft | 219 kts | 90° |
| 2026-05-03 21:40 | 26.06720 | -80.44028 | 3793 ft | 232 kts | 91° |
| 2026-05-03 21:41 | 26.06714 | -80.42301 | 3591 ft | 219 kts | 92° |
| 2026-05-03 21:41 | 26.06709 | -80.40671 | 3452 ft | 205 kts | 90° |
| 2026-05-03 21:41 | 26.06702 | -80.39097 | 3365 ft | 203 kts | 90° |
| 2026-05-03 21:41 | 26.06695 | -80.37525 | 3271 ft | 203 kts | 90° |
| 2026-05-03 21:42 | 26.06689 | -80.35963 | 3184 ft | 202 kts | 90° |
| 2026-05-03 21:42 | 26.06682 | -80.34414 | 3116 ft | 200 kts | 90° |
| 2026-05-03 21:42 | 26.06675 | -80.32875 | 2923 ft | 198 kts | 90° |
| 2026-05-03 21:42 | 26.06668 | -80.31349 | 2689 ft | 197 kts | 90° |
| 2026-05-03 21:43 | 26.06661 | -80.29835 | 2437 ft | 194 kts | 90° |
| 2026-05-03 21:43 | 26.06654 | -80.28339 | 2183 ft | 192 kts | 90° |
| 2026-05-03 21:43 | 26.06647 | -80.26894 | 1955 ft | 177 kts | 89° |
| 2026-05-03 21:43 | 26.06640 | -80.25622 | 1726 ft | 156 kts | 89° |
| 2026-05-03 21:44 | 26.06634 | -80.24452 | 1533 ft | 148 kts | 88° |
| 2026-05-03 21:44 | 26.06628 | -80.23320 | 1340 ft | 145 kts | 89° |
| 2026-05-03 21:44 | 26.06624 | -80.22205 | 1133 ft | 144 kts | 88° |
| 2026-05-03 21:44 | 26.06638 | -80.21100 | 952 ft | 149 kts | 88° |
| 2026-05-03 21:45 | 26.06624 | -80.19970 | 717 ft | 143 kts | 88° |
| 2026-05-03 21:45 | 26.06601 | -80.18879 | 520 ft | 139 kts | 87° |
| 2026-05-03 21:45 | 26.06595 | -80.17799 | 364 ft | 139 kts | 85° |
| 2026-05-03 21:45 | 26.06593 | -80.16718 | 233 ft | 140 kts | 85° |
| 2026-05-03 21:46 | 26.06588 | -80.15638 | 53 ft | 139 kts | 87° |
| 2026-05-03 21:46 | 26.06587 | -80.14779 | 18 ft | 70 kts | 91° |
| 2026-05-03 21:46 | 26.06581 | -80.14494 | 18 ft | 27 kts | 88° |
| 2026-05-03 21:46 | 26.06599 | -80.14281 | 20 ft | 27 kts | 67° |
| 2026-05-03 21:47 | 26.06680 | -80.14242 | 19 ft | 10 kts | 317° |
| 2026-05-03 21:47 | 26.06690 | -80.14281 | 19 ft | 0 kts | 269° |
| 2026-05-03 21:47 | 26.06690 | -80.14282 | 19 ft | 1 kts | 269° |
| 2026-05-03 21:47 | 26.06690 | -80.14307 | 19 ft | 3 kts | 269° |
| 2026-05-03 21:48 | 26.06690 | -80.14353 | 18 ft | 10 kts | 269° |
| 2026-05-03 21:48 | 26.06689 | -80.14394 | 18 ft | 9 kts | 270° |
| 2026-05-03 21:48 | 26.06690 | -80.14465 | 17 ft | 9 kts | 270° |
| 2026-05-03 21:48 | 26.06691 | -80.14549 | 17 ft | 12 kts | 271° |
| 2026-05-03 21:49 | 26.06692 | -80.14618 | 17 ft | 2 kts | 271° |
| 2026-05-03 21:49 | 26.06692 | -80.14640 | 17 ft | 5 kts | 271° |
| 2026-05-03 21:49 | 26.06693 | -80.14678 | 18 ft | 0 kts | 270° |
| 2026-05-03 21:49 | 26.06693 | -80.14693 | 18 ft | 5 kts | 270° |
| 2026-05-03 21:50 | 26.06693 | -80.14704 | 18 ft | 5 kts | 270° |
| 2026-05-03 21:50 | 26.06692 | -80.14751 | 19 ft | 14 kts | 269° |
| 2026-05-03 21:50 | 26.06690 | -80.14862 | 21 ft | 8 kts | 271° |
| 2026-05-03 21:50 | 26.06694 | -80.14930 | 22 ft | 10 kts | 273° |
| 2026-05-03 21:51 | 26.06695 | -80.15025 | 23 ft | 15 kts | 270° |
| 2026-05-03 21:51 | 26.06716 | -80.15120 | 23 ft | 12 kts | 323° |
| 2026-05-03 21:51 | 26.06813 | -80.15134 | 24 ft | 17 kts | 2° |
| 2026-05-03 21:51 | 26.06942 | -80.15132 | 24 ft | 19 kts | 1° |
| 2026-05-03 21:52 | 26.07067 | -80.15104 | 24 ft | 16 kts | 39° |
| 2026-05-03 21:52 | 26.07114 | -80.15054 | 23 ft | 10 kts | 45° |
| 2026-05-03 21:52 | 26.07173 | -80.14985 | 22 ft | 11 kts | 48° |
| 2026-05-03 21:52 | 26.07164 | -80.14950 | 21 ft | 9 kts | 130° |
| 2026-05-03 21:53 | 26.07126 | -80.14870 | 21 ft | 6 kts | 92° |
| 2026-05-03 21:53 | 26.07150 | -80.14828 | 21 ft | 6 kts | 47° |
| 2026-05-03 21:53 | 26.07161 | -80.14816 | 21 ft | 0 kts | 46° |
| 2026-05-03 21:53 | 26.07163 | -80.14812 | 21 ft | 0 kts | 46° |
| 2026-05-03 21:54 | 26.07165 | -80.14810 | 24 ft | 1 kts | 46° |
| 2026-05-03 21:54 | 26.07167 | -80.14808 | 23 ft | 1 kts | 46° |
| 2026-05-03 21:54 | 26.07176 | -80.14797 | 24 ft | 3 kts | 46° |
| 2026-05-03 21:54 | 26.07200 | -80.14769 | 22 ft | 8 kts | 47° |
| 2026-05-03 21:55 | 26.07231 | -80.14707 | 21 ft | 4 kts | 70° |
| 2026-05-03 21:55 | 26.07237 | -80.14686 | 21 ft | 0 kts | 71° |
| 2026-05-03 21:55 | 26.07247 | -80.14670 | 21 ft | 3 kts | 45° |
| 2026-05-03 21:55 | 26.07268 | -80.14653 | 21 ft | 0 kts | 37° |